createdAt,value
2022-09-20T00:03:15.176Z,63.50
2022-09-20T00:06:38.785Z,63.10
2022-09-20T00:10:03.744Z,63.00
2022-09-20T00:13:27.318Z,63.30
2022-09-20T00:16:51.062Z,63.20
2022-09-20T00:20:14.820Z,63.00
2022-09-20T00:23:38.361Z,62.70
2022-09-20T00:27:03.291Z,62.50
2022-09-20T00:30:26.857Z,62.40
2022-09-20T00:34:07.997Z,62.40
2022-09-20T00:37:31.586Z,62.30
2022-09-20T00:40:55.083Z,62.30
2022-09-20T00:44:47.614Z,62.50
2022-09-20T00:48:14.565Z,62.60
2022-09-20T00:51:40.839Z,62.40
2022-09-20T00:55:08.209Z,62.50
2022-09-20T00:58:37.721Z,62.30
2022-09-20T01:02:06.306Z,62.40
2022-09-20T01:05:30.140Z,62.30
2022-09-20T01:08:57.147Z,62.50
2022-09-20T01:12:24.406Z,62.60
2022-09-20T01:15:50.408Z,62.70
2022-09-20T01:19:20.773Z,62.60
2022-09-20T01:22:57.258Z,62.70
2022-09-20T01:26:48.149Z,62.60
2022-09-20T01:30:16.081Z,62.50
2022-09-20T01:33:45.531Z,62.60
2022-09-20T01:37:15.432Z,62.70
2022-09-20T01:40:45.558Z,63.10
2022-09-20T01:44:14.918Z,63.60
2022-09-20T01:47:49.337Z,63.90
2022-09-20T01:51:49.601Z,64.30
2022-09-20T01:55:57.300Z,64.50
2022-09-20T01:59:53.162Z,65.90
2022-09-20T02:03:52.951Z,66.30
2022-09-20T02:07:44.312Z,66.60
2022-09-20T02:11:13.896Z,67.10
2022-09-20T02:14:46.226Z,67.10
2022-09-20T02:18:21.941Z,67.10
2022-09-20T02:21:52.972Z,67.30
2022-09-20T02:25:34.061Z,68.10
2022-09-20T02:29:08.317Z,67.40
2022-09-20T02:32:47.198Z,67.40
2022-09-20T02:36:22.842Z,67.30
2022-09-20T02:39:56.911Z,67.40
2022-09-20T02:43:32.512Z,67.40
2022-09-20T02:47:02.027Z,67.30
2022-09-20T02:50:34.790Z,67.20
2022-09-20T02:54:05.590Z,67.00
2022-09-20T02:57:38.873Z,66.80
2022-09-20T03:01:14.089Z,66.70
2022-09-20T03:04:49.308Z,66.40
2022-09-20T03:08:25.380Z,66.50
2022-09-20T03:12:01.701Z,66.40
2022-09-20T03:15:35.125Z,66.50
2022-09-20T03:19:08.824Z,66.60
2022-09-20T03:22:44.854Z,66.70
2022-09-20T03:26:17.906Z,66.60
2022-09-20T03:29:55.705Z,66.40
2022-09-20T03:33:27.658Z,66.50
2022-09-20T03:37:08.076Z,66.60
2022-09-20T03:41:07.573Z,66.80
2022-09-20T03:45:00.929Z,67.00
2022-09-20T03:48:41.985Z,67.20
2022-09-20T03:52:19.101Z,67.20
2022-09-20T03:56:13.896Z,67.20
2022-09-20T04:00:03.906Z,67.10
2022-09-20T04:03:45.926Z,65.90
2022-09-20T04:07:23.664Z,66.10
2022-09-20T04:10:55.645Z,67.30
2022-09-20T04:14:26.261Z,66.30
2022-09-20T04:17:56.948Z,67.50
2022-09-20T04:21:27.609Z,67.70
2022-09-20T04:24:57.854Z,67.90
2022-09-20T04:28:26.213Z,68.10
2022-09-20T04:31:56.981Z,68.10
2022-09-20T04:35:51.382Z,68.10
2022-09-20T04:39:26.460Z,68.10
2022-09-20T04:43:23.741Z,68.40
2022-09-20T04:47:15.200Z,68.50
2022-09-20T04:51:32.967Z,68.60
2022-09-20T04:55:30.414Z,68.80
2022-09-20T04:59:08.868Z,68.90
2022-09-20T05:03:11.140Z,68.80
2022-09-20T05:06:57.481Z,68.80
2022-09-20T05:10:49.367Z,69.00
2022-09-20T05:15:04.333Z,69.00
2022-09-20T05:18:54.331Z,68.90
2022-09-20T05:22:45.292Z,69.10
2022-09-20T05:26:13.150Z,68.90
2022-09-20T05:29:49.644Z,68.70
2022-09-20T05:33:21.350Z,68.70
2022-09-20T05:36:54.716Z,67.20
2022-09-20T05:40:30.924Z,66.80
2022-09-20T05:44:02.621Z,66.30
2022-09-20T05:47:41.262Z,66.20
2022-09-20T05:51:15.257Z,65.70
2022-09-20T05:55:17.011Z,65.40
2022-09-20T05:59:02.618Z,65.60
2022-09-20T06:02:39.226Z,64.90
2022-09-20T06:06:10.583Z,64.30
2022-09-20T06:09:56.055Z,64.20
2022-09-20T06:13:39.685Z,64.20
2022-09-20T06:17:12.773Z,63.70
2022-09-20T06:20:47.800Z,63.90
2022-09-20T06:24:32.333Z,63.80
2022-09-20T06:28:01.195Z,63.60
2022-09-20T06:31:24.905Z,63.40
2022-09-20T06:34:49.815Z,63.40
2022-09-20T06:38:51.611Z,63.30
2022-09-20T06:42:15.313Z,63.30
2022-09-20T06:45:39.312Z,63.20
2022-09-20T06:49:04.042Z,63.30
2022-09-20T06:52:28.054Z,63.00
2022-09-20T06:55:53.908Z,62.80
2022-09-20T06:59:17.751Z,63.20
2022-09-20T07:02:41.269Z,62.90
2022-09-20T07:06:05.136Z,63.20
2022-09-20T07:09:29.047Z,62.70
2022-09-20T07:12:57.231Z,62.40
2022-09-20T07:16:21.236Z,62.20
2022-09-20T07:19:45.010Z,61.90
2022-09-20T07:23:08.850Z,61.80
2022-09-20T07:26:33.175Z,61.60
2022-09-20T07:29:58.060Z,61.80
2022-09-20T07:33:22.098Z,62.10
2022-09-20T07:36:45.770Z,61.60
2022-09-20T07:40:11.775Z,62.10
2022-09-20T07:43:35.675Z,61.80
2022-09-20T07:47:01.611Z,61.50
2022-09-20T07:50:25.481Z,61.00
2022-09-20T07:53:49.003Z,60.10
2022-09-20T07:57:16.670Z,59.50
2022-09-20T08:00:40.421Z,58.50
2022-09-20T08:04:05.697Z,58.30
2022-09-20T08:07:30.330Z,58.10
2022-09-20T08:10:55.748Z,57.30
2022-09-20T08:14:20.054Z,57.40
2022-09-20T08:17:43.788Z,56.70
2022-09-20T08:21:11.130Z,56.50
2022-09-20T08:24:34.638Z,56.60
2022-09-20T08:27:58.376Z,56.30
2022-09-20T08:31:23.854Z,56.40
2022-09-20T08:34:49.391Z,55.80
2022-09-20T08:42:04.226Z,54.10
2022-09-20T08:45:35.596Z,53.00
2022-09-20T08:48:59.794Z,49.80
2022-09-20T08:52:35.865Z,49.50
2022-09-20T08:56:01.807Z,48.60
2022-09-20T08:59:25.986Z,48.50
2022-09-20T09:02:52.960Z,48.80
2022-09-20T09:06:20.509Z,48.30
2022-09-20T09:09:46.493Z,48.10
2022-09-20T09:13:21.619Z,47.70
2022-09-20T09:16:45.245Z,47.60
2022-09-20T09:20:18.484Z,43.80
2022-09-20T09:23:46.363Z,38.20
2022-09-20T09:27:16.347Z,34.80
2022-09-20T09:30:43.190Z,33.50
2022-09-20T09:34:22.046Z,32.40
2022-09-20T09:37:55.254Z,33.50
2022-09-20T09:41:26.365Z,35.10
2022-09-20T09:44:50.426Z,37.80
2022-09-20T09:48:21.995Z,39.30
2022-09-20T09:52:14.269Z,39.50
2022-09-20T09:56:06.749Z,39.60
2022-09-20T09:59:51.158Z,39.90
2022-09-20T10:04:07.321Z,40.80
2022-09-20T10:07:38.835Z,39.30
2022-09-20T10:11:15.061Z,37.70
2022-09-20T10:14:50.640Z,37.40
2022-09-20T10:18:24.998Z,38.90
2022-09-20T10:21:57.211Z,40.20
2022-09-20T10:25:28.496Z,40.80
2022-09-20T10:29:01.311Z,42.00
2022-09-20T10:32:40.929Z,44.10
2022-09-20T10:36:20.659Z,45.90
2022-09-20T10:39:57.114Z,49.30
2022-09-20T10:43:40.431Z,53.60
2022-09-20T10:47:09.945Z,58.20
2022-09-20T10:50:42.035Z,60.30
2022-09-20T10:54:14.746Z,63.00
2022-09-20T10:58:06.780Z,62.90
2022-09-20T11:01:39.591Z,61.00
2022-09-20T11:05:31.382Z,62.40
2022-09-20T11:08:59.295Z,60.60
2022-09-20T11:12:32.331Z,61.00
2022-09-20T11:16:03.979Z,58.40
2022-09-20T11:19:33.917Z,56.20
2022-09-20T11:23:02.518Z,56.00
2022-09-20T11:26:32.255Z,55.90
2022-09-20T11:30:02.778Z,55.70
2022-09-20T11:33:30.706Z,55.30
2022-09-20T11:36:59.018Z,55.00
2022-09-20T11:40:29.421Z,53.80
2022-09-20T11:43:54.903Z,53.20
2022-09-20T11:47:49.997Z,52.60
2022-09-20T11:51:34.976Z,51.70
2022-09-20T11:55:21.115Z,50.40
2022-09-20T11:58:50.277Z,49.10
2022-09-20T12:02:21.716Z,46.20
2022-09-20T12:05:45.700Z,48.60
2022-09-20T12:09:33.447Z,50.00
2022-09-20T12:13:00.508Z,50.00
2022-09-20T12:16:38.346Z,47.10
2022-09-20T12:20:02.404Z,50.20
2022-09-20T12:23:59.687Z,48.00
2022-09-20T12:27:57.886Z,44.70
2022-09-20T12:31:48.424Z,45.50
2022-09-20T12:36:05.631Z,46.90
2022-09-20T12:39:30.933Z,47.80
2022-09-20T12:42:58.170Z,46.90
2022-09-20T12:46:25.904Z,46.30
2022-09-20T12:50:11.478Z,46.60
2022-09-20T12:53:35.259Z,46.80
2022-09-20T12:57:19.074Z,46.30
2022-09-20T13:00:46.835Z,48.30
2022-09-20T13:05:02.366Z,48.00
2022-09-20T13:08:30.112Z,49.20
2022-09-20T13:11:56.995Z,48.30
2022-09-20T13:15:22.523Z,48.90
2022-09-20T13:18:48.797Z,50.20
2022-09-20T13:22:14.801Z,51.00
2022-09-20T13:25:40.993Z,51.60
2022-09-20T13:29:09.980Z,52.30
2022-09-20T13:32:34.586Z,52.90
2022-09-20T13:35:59.613Z,53.10
2022-09-20T13:39:37.294Z,52.70
2022-09-20T13:43:22.515Z,52.30
2022-09-20T13:46:47.379Z,51.60
2022-09-20T13:50:19.359Z,50.70
2022-09-20T13:53:46.732Z,49.90
2022-09-20T13:57:19.863Z,49.90
2022-09-20T14:00:48.573Z,49.70
2022-09-20T14:04:17.266Z,48.40
2022-09-20T14:07:44.629Z,48.00
2022-09-20T14:11:16.041Z,48.70
2022-09-20T14:14:39.832Z,50.00
2022-09-20T14:18:06.487Z,50.30
2022-09-20T14:21:34.313Z,51.30
2022-09-20T14:25:00.925Z,49.30
2022-09-20T14:28:29.005Z,49.20
2022-09-20T14:31:54.092Z,48.90
2022-09-20T14:35:20.701Z,48.30
2022-09-20T14:38:45.887Z,47.70
2022-09-20T14:42:20.251Z,47.80
2022-09-20T14:45:52.674Z,46.80
2022-09-20T14:49:34.407Z,47.50
2022-09-20T14:53:21.477Z,47.40
2022-09-20T14:56:50.990Z,47.40
2022-09-20T15:00:17.025Z,48.00
2022-09-20T15:03:43.927Z,48.00
2022-09-20T15:07:11.470Z,47.90
2022-09-20T15:10:35.076Z,47.40
2022-09-20T15:13:58.652Z,47.30
2022-09-20T15:17:23.621Z,47.20
2022-09-20T15:20:50.145Z,47.50
2022-09-20T15:24:14.580Z,47.40
2022-09-20T15:27:38.144Z,47.70
2022-09-20T15:31:01.774Z,47.80
2022-09-20T15:34:25.415Z,47.80
2022-09-20T15:37:50.317Z,48.00
2022-09-20T15:41:13.877Z,48.70
2022-09-20T15:44:37.743Z,49.10
2022-09-20T15:48:02.453Z,48.40
2022-09-20T15:51:26.383Z,49.20
2022-09-20T15:54:51.845Z,48.70
2022-09-20T15:58:15.922Z,48.60
2022-09-20T16:01:41.316Z,49.20
2022-09-20T16:05:05.926Z,49.00
2022-09-20T16:08:32.978Z,49.10
2022-09-20T16:11:59.743Z,49.70
2022-09-20T16:15:23.316Z,48.90
2022-09-20T16:19:04.652Z,49.20
2022-09-20T16:22:29.143Z,49.60
2022-09-20T16:25:54.930Z,50.20
2022-09-20T16:29:21.977Z,49.40
2022-09-20T16:32:47.064Z,49.30
2022-09-20T16:36:10.616Z,49.50
2022-09-20T16:39:35.257Z,50.00
2022-09-20T16:42:58.948Z,50.30
2022-09-20T16:46:27.071Z,50.30
2022-09-20T16:49:51.521Z,50.70
2022-09-20T16:53:15.231Z,49.50
2022-09-20T16:56:39.903Z,49.80
2022-09-20T17:00:04.628Z,50.30
2022-09-20T17:03:30.070Z,50.60
2022-09-20T17:06:54.334Z,50.40
2022-09-20T17:10:18.005Z,50.30
2022-09-20T17:13:43.371Z,50.60
2022-09-20T17:17:06.950Z,51.00
2022-09-20T17:20:31.856Z,51.00
2022-09-20T17:23:57.488Z,51.40
2022-09-20T17:27:21.688Z,51.60
2022-09-20T17:30:45.581Z,51.90
2022-09-20T17:34:10.939Z,52.10
2022-09-20T17:37:35.846Z,53.10
2022-09-20T17:41:08.363Z,52.60
2022-09-20T17:44:37.873Z,52.80
2022-09-20T17:48:01.395Z,53.10
2022-09-20T17:51:27.649Z,53.20
2022-09-20T17:54:56.796Z,53.40
2022-09-20T17:58:20.365Z,53.60
2022-09-20T18:01:45.017Z,54.00
2022-09-20T18:05:09.187Z,54.40
2022-09-20T18:08:32.669Z,54.50
2022-09-20T18:11:58.037Z,54.80
2022-09-20T18:15:21.587Z,55.00
2022-09-20T18:18:46.463Z,55.10
2022-09-20T18:22:09.985Z,55.50
2022-09-20T18:25:55.804Z,55.60
2022-09-20T18:29:24.734Z,55.60
2022-09-20T18:32:51.571Z,55.80
2022-09-20T18:36:15.504Z,56.10
2022-09-20T18:39:39.008Z,57.00
2022-09-20T18:43:04.788Z,56.50
2022-09-20T18:46:31.032Z,57.00
2022-09-20T18:49:54.770Z,57.30
2022-09-20T18:53:18.454Z,57.40
2022-09-20T18:56:43.770Z,57.60
2022-09-20T19:00:08.836Z,57.60
2022-09-20T19:03:48.887Z,57.80
2022-09-20T19:07:18.885Z,58.00
2022-09-20T19:10:48.469Z,57.90
2022-09-20T19:14:19.518Z,57.90
2022-09-20T19:18:07.127Z,57.80
2022-09-20T19:21:43.531Z,57.90
2022-09-20T19:25:21.265Z,58.30
2022-09-20T19:28:45.341Z,58.60
2022-09-20T19:32:15.745Z,58.70
2022-09-20T19:35:41.187Z,58.90
2022-09-20T19:39:11.723Z,58.80
2022-09-20T19:42:47.656Z,58.80
2022-09-20T19:46:27.169Z,58.90
2022-09-20T19:49:55.320Z,58.80
2022-09-20T19:53:22.195Z,58.90
2022-09-20T19:56:55.173Z,59.20
2022-09-20T20:00:21.611Z,59.30
2022-09-20T20:03:47.312Z,59.40
2022-09-20T20:07:23.419Z,59.40
2022-09-20T20:10:58.657Z,59.30
2022-09-20T20:14:30.693Z,59.30
2022-09-20T20:18:00.520Z,59.30
2022-09-20T20:21:37.244Z,59.30
2022-09-20T20:25:01.129Z,59.30
2022-09-20T20:28:24.784Z,59.40
2022-09-20T20:31:49.725Z,59.40
2022-09-20T20:35:14.946Z,59.50
2022-09-20T20:38:39.356Z,59.60
2022-09-20T20:42:04.105Z,59.50
2022-09-20T20:45:27.764Z,59.60
2022-09-20T20:48:52.791Z,59.70
2022-09-20T20:52:16.392Z,59.80
2022-09-20T20:55:41.097Z,59.90
2022-09-20T20:59:05.886Z,60.30
2022-09-20T21:02:29.449Z,61.20
2022-09-20T21:05:56.036Z,60.60
2022-09-20T21:09:19.601Z,60.70
2022-09-20T21:12:43.094Z,60.70
2022-09-20T21:16:08.904Z,60.70
2022-09-20T21:19:32.646Z,61.00
2022-09-20T21:22:58.623Z,61.00
2022-09-20T21:26:23.904Z,61.00
2022-09-20T21:29:47.455Z,61.20
2022-09-20T21:33:11.521Z,61.20
2022-09-20T21:36:36.022Z,61.20
2022-09-20T21:40:02.612Z,62.50
2022-09-20T21:43:26.625Z,62.80
2022-09-20T21:46:50.372Z,63.00
2022-09-20T21:50:14.107Z,63.20
2022-09-20T21:53:38.413Z,63.10
2022-09-20T21:57:03.565Z,63.10
2022-09-20T22:00:27.409Z,63.40
2022-09-20T22:03:52.738Z,63.50
2022-09-20T22:07:16.443Z,63.50
2022-09-20T22:10:40.064Z,63.50
2022-09-20T22:14:04.935Z,63.60
2022-09-20T22:17:32.212Z,63.70
2022-09-20T22:21:03.636Z,63.90
2022-09-20T22:24:27.203Z,63.90
2022-09-20T22:27:50.730Z,64.00
2022-09-20T22:31:17.577Z,64.00
2022-09-20T22:34:41.130Z,64.30
2022-09-20T22:38:04.647Z,64.50
2022-09-20T22:41:28.601Z,64.50
2022-09-20T22:44:52.114Z,64.70
2022-09-20T22:48:17.237Z,64.50
2022-09-20T22:51:40.815Z,64.50
2022-09-20T22:55:04.473Z,64.60
2022-09-20T22:58:31.767Z,64.80
2022-09-20T23:01:55.358Z,64.90
2022-09-20T23:05:20.217Z,64.80
2022-09-20T23:08:44.392Z,65.00
2022-09-20T23:12:08.014Z,65.00
2022-09-20T23:15:31.504Z,65.30
2022-09-20T23:18:56.093Z,65.30
2022-09-20T23:22:20.965Z,65.30
2022-09-20T23:25:44.460Z,65.10
2022-09-20T23:29:10.208Z,64.60
2022-09-20T23:32:33.974Z,64.70
2022-09-20T23:35:58.111Z,65.30
2022-09-20T23:39:23.096Z,65.60
2022-09-20T23:42:46.685Z,66.70
2022-09-20T23:46:11.634Z,66.00
2022-09-20T23:49:36.664Z,65.90
2022-09-20T23:53:00.206Z,65.90
2022-09-20T23:56:26.729Z,65.90
2022-09-20T23:59:50.312Z,65.90
